Norman Y. Mineta San Jose International Airport
KSJC : now visible

Airfield :











YOU CAN JOIN US ON...

 
LOGIN :

Register | Disclaimer

   EN    FR    IT 

 









Legend :    VFR   Marginal VFR   IFR   Intensive IFR   Very Intensive IFR
Visi :
Ceiling :
>= 8 km
>= 3000ft
5 to 8 km
1000 to 3000 ft
1500m to 5 km
500 to 1000 ft
800 to 1500m
200 to 500 ft
< 800m
< 200 ft
Symbols :   Thunderstorms  Fog  Heavy snow  Heavy precipitations  Wind > 20 kt







- Airport Elevation : 62 ft
- IATA code : SJC


KSJC - Norman Y. Mineta San Jose International

CURRENT METAR :
  • 181653Z 15006KT 10SM FEW001 SCT023 BKN028 19/13 A2998 RMK AO2 SLP150 T01940133 $

EXPIRED METARs :
  • 181553Z 14005KT 10SM FEW013 SCT022 BKN027 18/13 A2997 RMK AO2 SLP148 T01830133 $
  • 181453Z 16008KT 10SM FEW015 SCT020 BKN026 17/13 A2997 RMK AO2 SLP147 T01670133 53004 $

TAF KSJC
Valid from the 18 at 12:00 until the 19 at 12:00 UTC


181138Z 1812/1912 VRB03KT P6SM FEW025 SCT040
FM181400 14005KT P6SM VCSH BKN025
FM181730 14006KT P6SM FEW020 SCT025
FM181900 30012KT P6SM FEW030
FM190300 30008KT P6SM FEW030
FM190900 31006KT P6SM SCT020 BKN025
No reported NOTAMs for that airfield.



MET'MAP, your aeronautical weather chart ! - Copyright ORBIFLY December 2007 - Disclaimer

ORBIFLY MET'MAP TEAM :

Programming & Development : Alexandra Zaïnal
Concept & Development : Baudouin d'Aumeries
Co-Development & Prog : Marc-Olivier Méhu
Technical & hardware support : Manuel Goepfert

Contact : metmap@orbifly.com




SOURCES & CREDITS :

   NOAA       Earth
Advisory